createdAt,value
2022-12-08T00:00:09.734Z,82.73
2022-12-08T00:01:11.172Z,83.14
2022-12-08T00:01:57.890Z,83.36
2022-12-08T00:02:45.184Z,83.18
2022-12-08T00:03:32.086Z,83.21
2022-12-08T00:04:18.697Z,83.27
2022-12-08T00:05:23.581Z,83.32
2022-12-08T00:07:01.654Z,83.24
2022-12-08T00:08:06.941Z,83.10
2022-12-08T00:09:12.241Z,83.02
2022-12-08T00:10:14.314Z,83.35
2022-12-08T00:11:15.554Z,83.39
2022-12-08T00:12:06.216Z,83.55
2022-12-08T00:12:52.740Z,83.81
2022-12-08T00:13:39.254Z,83.88
2022-12-08T00:14:31.961Z,83.79
2022-12-08T00:15:18.525Z,83.74
2022-12-08T00:16:07.327Z,83.54
2022-12-08T00:16:54.725Z,83.54
2022-12-08T00:17:41.365Z,83.60
2022-12-08T00:18:27.823Z,83.87
2022-12-08T00:19:14.277Z,83.57
2022-12-08T00:20:00.992Z,83.35
2022-12-08T00:20:55.412Z,83.61
2022-12-08T00:21:42.132Z,83.72
2022-12-08T00:22:29.385Z,83.61
2022-12-08T00:23:15.950Z,83.29
2022-12-08T00:24:03.503Z,83.11
2022-12-08T00:24:50.128Z,82.70
2022-12-08T00:25:37.342Z,83.15
2022-12-08T00:26:24.067Z,83.15
2022-12-08T00:27:13.146Z,83.12
2022-12-08T00:27:59.610Z,83.05
2022-12-08T00:28:46.140Z,82.86
2022-12-08T00:29:32.830Z,82.98
2022-12-08T00:30:19.409Z,82.40
2022-12-08T00:31:11.418Z,82.29
2022-12-08T00:31:58.095Z,82.53
2022-12-08T00:32:44.856Z,82.73
2022-12-08T00:33:31.343Z,82.68
2022-12-08T00:34:18.115Z,83.14
2022-12-08T00:35:05.973Z,82.61
2022-12-08T00:35:52.730Z,82.44
2022-12-08T00:36:40.302Z,82.50
2022-12-08T00:37:26.793Z,82.47
2022-12-08T00:38:13.453Z,82.26
2022-12-08T00:39:00.581Z,82.65
2022-12-08T00:39:47.006Z,82.42
2022-12-08T00:40:33.662Z,82.55
2022-12-08T00:41:41.855Z,82.63
2022-12-08T00:42:28.562Z,82.61
2022-12-08T00:43:15.518Z,82.72
2022-12-08T00:44:02.142Z,82.85
2022-12-08T00:44:48.840Z,82.92
2022-12-08T00:45:35.346Z,82.75
2022-12-08T00:46:22.128Z,83.24
2022-12-08T00:47:08.982Z,82.69
2022-12-08T00:47:55.848Z,83.02
2022-12-08T00:48:42.314Z,82.76
2022-12-08T00:49:28.894Z,82.76
2022-12-08T00:50:18.421Z,82.74
2022-12-08T00:51:05.214Z,82.69
2022-12-08T00:51:52.188Z,82.71
2022-12-08T00:52:38.676Z,82.11
2022-12-08T00:53:25.555Z,81.92
2022-12-08T00:54:12.674Z,82.06
2022-12-08T00:54:59.235Z,81.76
2022-12-08T00:55:45.834Z,81.68
2022-12-08T00:56:33.833Z,81.79
2022-12-08T00:57:20.619Z,81.96
2022-12-08T00:58:07.375Z,81.71
2022-12-08T00:58:53.910Z,82.04
2022-12-08T00:59:40.590Z,81.90
2022-12-08T01:00:27.249Z,82.15
2022-12-08T01:01:14.912Z,82.05
2022-12-08T01:02:04.324Z,82.35
2022-12-08T01:02:51.131Z,82.33
2022-12-08T01:03:37.718Z,82.28
2022-12-08T01:04:24.356Z,82.07
2022-12-08T01:05:10.919Z,82.19
2022-12-08T01:06:04.001Z,82.44
2022-12-08T01:06:50.551Z,82.63
2022-12-08T01:07:37.289Z,82.58
2022-12-08T01:08:24.017Z,82.83
2022-12-08T01:09:13.808Z,82.58
2022-12-08T01:10:00.336Z,82.27
2022-12-08T01:10:46.863Z,82.37
2022-12-08T01:11:34.087Z,82.53
2022-12-08T01:12:23.748Z,82.08
2022-12-08T01:13:11.411Z,81.80
2022-12-08T01:13:58.140Z,82.19
2022-12-08T01:14:44.771Z,82.00
2022-12-08T01:15:31.659Z,82.26
2022-12-08T01:16:23.998Z,82.54
2022-12-08T01:17:10.582Z,82.82
2022-12-08T01:17:57.625Z,82.63
2022-12-08T01:18:44.318Z,82.63
2022-12-08T01:19:30.939Z,82.64
2022-12-08T01:20:17.753Z,82.26
2022-12-08T01:21:07.070Z,82.17
2022-12-08T01:21:55.010Z,82.28
2022-12-08T01:22:41.603Z,82.25
2022-12-08T01:23:28.786Z,82.31
2022-12-08T01:24:19.740Z,82.13
2022-12-08T01:25:06.735Z,82.29
2022-12-08T01:25:53.253Z,82.50
2022-12-08T01:26:40.688Z,82.85
2022-12-08T01:27:27.216Z,82.53
2022-12-08T01:28:16.724Z,82.66
2022-12-08T01:29:03.554Z,82.60
2022-12-08T01:29:50.191Z,82.44
2022-12-08T01:30:42.732Z,81.94
2022-12-08T01:31:29.359Z,81.92
2022-12-08T01:32:15.934Z,82.05
2022-12-08T01:33:02.463Z,82.19
2022-12-08T01:33:50.451Z,82.37
2022-12-08T01:34:37.111Z,82.78
2022-12-08T01:35:23.788Z,83.00
2022-12-08T01:36:21.900Z,83.01
2022-12-08T01:37:09.820Z,83.02
2022-12-08T01:37:56.610Z,82.40
2022-12-08T01:38:43.350Z,82.99
2022-12-08T01:39:30.660Z,82.80
2022-12-08T01:40:17.379Z,82.74
2022-12-08T01:41:04.072Z,82.88
2022-12-08T01:41:50.651Z,82.35
2022-12-08T01:42:38.536Z,82.80
2022-12-08T01:43:25.582Z,82.93
2022-12-08T01:44:12.252Z,82.88
2022-12-08T01:45:04.903Z,82.26
2022-12-08T01:45:51.817Z,82.50
2022-12-08T01:46:41.538Z,82.05
2022-12-08T01:47:37.845Z,82.06
2022-12-08T01:48:27.621Z,82.05
2022-12-08T01:49:19.798Z,81.83
2022-12-08T01:50:11.684Z,81.80
2022-12-08T01:50:59.607Z,81.91
2022-12-08T01:52:10.896Z,82.06
2022-12-08T01:53:18.265Z,82.41
2022-12-08T01:54:07.043Z,82.02
2022-12-08T01:55:00.624Z,82.08
2022-12-08T01:55:56.180Z,81.76
2022-12-08T01:57:01.765Z,81.54
2022-12-08T01:57:54.476Z,81.07
2022-12-08T01:58:49.455Z,81.44
2022-12-08T01:59:44.146Z,81.72
2022-12-08T02:00:33.052Z,81.47
2022-12-08T02:01:22.646Z,81.52
2022-12-08T02:02:12.160Z,81.41
2022-12-08T02:03:09.909Z,81.83
2022-12-08T02:04:02.806Z,81.50
2022-12-08T02:04:49.511Z,81.54
2022-12-08T02:05:38.800Z,81.42
2022-12-08T02:06:30.350Z,81.96
2022-12-08T02:07:18.678Z,81.77
2022-12-08T02:08:10.884Z,81.88
2022-12-08T02:09:00.785Z,81.75
2022-12-08T02:09:47.881Z,82.07
2022-12-08T02:10:38.265Z,81.90
2022-12-08T02:11:24.774Z,82.35
2022-12-08T02:12:12.336Z,82.00
2022-12-08T02:13:00.834Z,81.87
2022-12-08T02:13:51.384Z,82.19
2022-12-08T02:14:40.872Z,82.09
2022-12-08T02:16:06.474Z,82.32
2022-12-08T02:17:28.394Z,82.64
2022-12-08T02:18:36.395Z,81.74
2022-12-08T02:20:01.133Z,81.63
2022-12-08T02:21:00.091Z,82.30
2022-12-08T02:21:51.953Z,81.93
2022-12-08T02:23:15.405Z,82.30
2022-12-08T02:24:20.743Z,82.48
2022-12-08T02:25:15.911Z,82.01
2022-12-08T02:26:39.643Z,82.00
2022-12-08T02:27:54.345Z,82.07
2022-12-08T02:29:12.761Z,81.95
2022-12-08T02:30:07.923Z,81.74
2022-12-08T02:31:25.790Z,81.84
2022-12-08T02:32:12.271Z,81.76
2022-12-08T02:33:33.376Z,82.09
2022-12-08T02:34:45.184Z,82.05
2022-12-08T02:36:05.347Z,82.31
2022-12-08T02:37:10.395Z,81.63
2022-12-08T02:38:09.790Z,81.69
2022-12-08T02:39:10.096Z,82.21
2022-12-08T02:40:27.634Z,82.03
2022-12-08T02:41:42.787Z,82.00
2022-12-08T02:42:46.683Z,81.63
2022-12-08T02:43:43.599Z,81.97
2022-12-08T02:44:39.346Z,81.84
2022-12-08T02:45:39.465Z,81.65
2022-12-08T02:46:38.198Z,81.86
2022-12-08T02:47:28.366Z,81.15
2022-12-08T02:48:15.734Z,81.30
2022-12-08T02:49:03.588Z,81.85
2022-12-08T02:49:50.620Z,81.44
2022-12-08T02:50:37.925Z,81.67
2022-12-08T02:51:26.814Z,81.43
2022-12-08T02:52:13.438Z,81.27
2022-12-08T02:53:01.595Z,81.43
2022-12-08T02:53:49.516Z,81.34
2022-12-08T02:54:37.423Z,81.51
2022-12-08T02:55:38.947Z,81.58
2022-12-08T02:57:04.876Z,81.69
2022-12-08T02:58:00.126Z,81.62
2022-12-08T02:59:14.064Z,81.73
2022-12-08T03:00:06.682Z,81.26
2022-12-08T03:01:30.677Z,80.75
2022-12-08T03:02:39.203Z,80.71
2022-12-08T03:03:43.883Z,80.61
2022-12-08T03:04:42.726Z,80.65
2022-12-08T03:05:50.716Z,80.60
2022-12-08T03:06:55.656Z,80.79
2022-12-08T03:07:50.069Z,80.71
2022-12-08T03:08:55.418Z,80.57
2022-12-08T03:10:00.241Z,80.58
2022-12-08T03:10:57.691Z,80.61
2022-12-08T03:11:58.765Z,80.57
2022-12-08T03:12:53.640Z,80.35
2022-12-08T03:13:42.113Z,80.88
2022-12-08T03:14:31.565Z,80.87
2022-12-08T03:15:21.809Z,81.06
2022-12-08T03:16:12.843Z,81.03
2022-12-08T03:17:00.932Z,80.44
2022-12-08T03:17:55.100Z,80.79
2022-12-08T03:18:48.283Z,80.55
2022-12-08T03:19:40.849Z,80.37
2022-12-08T03:20:31.382Z,80.63
2022-12-08T03:21:21.792Z,80.55
2022-12-08T03:22:10.369Z,80.77
2022-12-08T03:23:01.892Z,81.43
2022-12-08T03:23:55.211Z,81.09
2022-12-08T03:24:45.183Z,81.00
2022-12-08T03:25:38.616Z,80.88
2022-12-08T03:26:31.792Z,80.98
2022-12-08T03:27:23.871Z,80.62
2022-12-08T03:28:12.884Z,80.96
2022-12-08T03:28:59.859Z,80.97
2022-12-08T03:29:49.211Z,80.40
2022-12-08T03:30:41.573Z,80.19
2022-12-08T03:31:36.099Z,80.39
2022-12-08T03:32:30.501Z,79.73
2022-12-08T03:33:26.714Z,80.88
2022-12-08T03:34:15.046Z,80.99
2022-12-08T03:35:09.423Z,80.84
2022-12-08T03:35:58.766Z,80.53
2022-12-08T03:36:45.467Z,80.70
2022-12-08T03:37:36.601Z,80.96
2022-12-08T03:38:23.209Z,80.68
2022-12-08T03:39:09.892Z,80.40
2022-12-08T03:39:56.875Z,80.47
2022-12-08T03:40:44.301Z,80.50
2022-12-08T03:41:31.030Z,80.27
2022-12-08T03:42:23.082Z,80.47
2022-12-08T03:43:10.024Z,80.27
2022-12-08T03:43:59.778Z,80.03
2022-12-08T03:44:46.302Z,79.80
2022-12-08T03:45:36.799Z,80.06
2022-12-08T03:47:12.680Z,80.57
2022-12-08T03:47:59.180Z,80.28
2022-12-08T03:48:45.966Z,80.42
2022-12-08T03:49:32.591Z,80.71
2022-12-08T03:50:19.379Z,79.94
2022-12-08T03:51:08.914Z,79.94
2022-12-08T03:51:55.572Z,80.68
2022-12-08T03:52:45.308Z,80.75
2022-12-08T03:53:34.546Z,80.02
2022-12-08T03:54:21.080Z,80.00
2022-12-08T03:55:08.150Z,80.36
2022-12-08T03:55:57.172Z,80.46
2022-12-08T03:56:43.899Z,80.38
2022-12-08T03:57:30.504Z,80.46
2022-12-08T03:58:17.051Z,80.23
2022-12-08T03:59:05.024Z,80.03
2022-12-08T03:59:51.821Z,80.01
2022-12-08T04:00:38.494Z,80.46
2022-12-08T04:01:25.335Z,80.53
2022-12-08T04:02:12.239Z,80.63
2022-12-08T04:02:58.964Z,80.72
2022-12-08T04:03:45.868Z,80.60
2022-12-08T04:04:32.420Z,81.00
2022-12-08T04:05:19.023Z,80.62
2022-12-08T04:06:06.738Z,80.09
2022-12-08T04:06:53.294Z,80.66
2022-12-08T04:07:39.889Z,80.93
2022-12-08T04:08:26.819Z,80.93
2022-12-08T04:09:13.438Z,81.14
2022-12-08T04:10:00.255Z,80.91
2022-12-08T04:10:46.859Z,80.45
2022-12-08T04:11:36.829Z,80.41
2022-12-08T04:12:23.417Z,80.60
2022-12-08T04:13:09.885Z,80.62
2022-12-08T04:13:56.705Z,80.85
2022-12-08T04:14:43.248Z,80.94
2022-12-08T04:15:29.804Z,80.92
2022-12-08T04:16:21.938Z,81.34
2022-12-08T04:17:09.123Z,81.42
2022-12-08T04:17:57.953Z,81.32
2022-12-08T04:18:45.138Z,81.06
2022-12-08T04:19:31.686Z,80.62
2022-12-08T04:20:18.403Z,80.99
2022-12-08T04:21:05.326Z,80.93
2022-12-08T04:21:53.103Z,81.57
2022-12-08T04:22:42.177Z,80.92
2022-12-08T04:23:28.809Z,81.01
2022-12-08T04:24:15.486Z,81.33
2022-12-08T04:25:02.515Z,81.74
2022-12-08T04:25:51.614Z,81.64
2022-12-08T04:26:38.214Z,81.56
2022-12-08T04:27:24.846Z,81.52
2022-12-08T04:28:12.867Z,81.72
2022-12-08T04:29:02.662Z,82.13
2022-12-08T04:29:49.875Z,81.78
2022-12-08T04:30:39.787Z,82.34
2022-12-08T04:31:26.513Z,82.24
2022-12-08T04:32:13.935Z,82.39
2022-12-08T04:33:00.849Z,82.63
2022-12-08T04:33:48.596Z,82.50
2022-12-08T04:34:36.425Z,83.16
2022-12-08T04:35:25.212Z,83.34
2022-12-08T04:36:12.288Z,83.33
2022-12-08T04:36:58.980Z,83.69
2022-12-08T04:37:45.782Z,83.03
2022-12-08T04:38:33.629Z,83.56
2022-12-08T04:39:20.398Z,83.90
2022-12-08T04:40:07.788Z,84.37
2022-12-08T04:40:54.651Z,83.84
2022-12-08T04:41:41.120Z,84.02
2022-12-08T04:42:27.814Z,84.41
2022-12-08T04:43:14.656Z,84.33
2022-12-08T04:44:01.243Z,84.18
2022-12-08T04:44:47.993Z,84.34
2022-12-08T04:45:37.557Z,84.33
2022-12-08T04:46:24.467Z,85.16
2022-12-08T04:47:11.400Z,84.83
2022-12-08T04:47:59.193Z,84.39
2022-12-08T04:48:45.926Z,84.36
2022-12-08T04:49:32.692Z,84.27
2022-12-08T04:50:19.590Z,84.66
2022-12-08T04:51:11.757Z,85.06
2022-12-08T04:51:58.504Z,85.15
2022-12-08T04:52:45.543Z,84.39
2022-12-08T04:53:33.366Z,84.35
2022-12-08T04:54:20.060Z,84.60
2022-12-08T04:55:07.225Z,83.98
2022-12-08T04:55:54.740Z,83.97
2022-12-08T04:56:41.475Z,84.64
2022-12-08T04:57:28.344Z,84.58
2022-12-08T04:58:18.450Z,84.94
2022-12-08T04:59:05.245Z,84.49
2022-12-08T04:59:51.894Z,84.79
2022-12-08T05:00:38.646Z,84.76
2022-12-08T05:01:26.012Z,85.00
2022-12-08T05:02:13.420Z,85.27
2022-12-08T05:03:00.733Z,84.69
2022-12-08T05:03:47.537Z,85.05
2022-12-08T05:04:34.125Z,85.31
2022-12-08T05:05:20.679Z,85.70
2022-12-08T05:06:07.774Z,85.67
2022-12-08T05:06:54.341Z,85.52
2022-12-08T05:07:43.551Z,85.36
2022-12-08T05:08:33.711Z,85.42
2022-12-08T05:09:20.531Z,85.53
2022-12-08T05:10:07.909Z,85.77
2022-12-08T05:10:54.401Z,86.07
2022-12-08T05:11:48.323Z,85.79
2022-12-08T05:12:35.617Z,85.69
2022-12-08T05:13:22.611Z,85.96
2022-12-08T05:14:11.647Z,85.60
2022-12-08T05:14:58.237Z,85.99
2022-12-08T05:15:44.990Z,86.17
2022-12-08T05:16:31.608Z,86.11
2022-12-08T05:17:18.615Z,86.04
2022-12-08T05:18:06.919Z,85.85
2022-12-08T05:18:53.612Z,85.53
2022-12-08T05:19:40.457Z,85.54
2022-12-08T05:20:27.837Z,85.38
2022-12-08T05:21:14.680Z,85.65
2022-12-08T05:22:01.477Z,85.85
2022-12-08T05:22:47.939Z,85.53
2022-12-08T05:23:34.723Z,85.88
2022-12-08T05:24:21.348Z,85.21
2022-12-08T05:25:08.144Z,84.87
2022-12-08T05:25:54.680Z,84.57
2022-12-08T05:26:41.304Z,84.65
2022-12-08T05:27:27.907Z,83.55
2022-12-08T05:28:40.204Z,83.42
2022-12-08T05:29:21.341Z,83.90
2022-12-08T05:30:08.079Z,84.22
2022-12-08T05:30:54.787Z,84.00
2022-12-08T05:31:41.432Z,84.23
2022-12-08T05:32:28.598Z,83.87
2022-12-08T05:33:15.732Z,84.34
2022-12-08T05:34:03.307Z,84.14
2022-12-08T05:34:50.200Z,84.54
2022-12-08T05:35:36.772Z,84.89
2022-12-08T05:36:23.445Z,84.75
2022-12-08T05:37:10.107Z,84.40
2022-12-08T05:37:56.716Z,84.22
2022-12-08T05:38:43.861Z,84.26
2022-12-08T05:39:31.095Z,83.96
2022-12-08T05:40:17.674Z,83.97
2022-12-08T05:41:08.598Z,83.60
2022-12-08T05:41:55.318Z,83.56
2022-12-08T05:42:41.766Z,83.27
2022-12-08T05:43:29.143Z,83.39
2022-12-08T05:44:15.736Z,83.47
2022-12-08T05:45:05.296Z,83.81
2022-12-08T05:45:51.987Z,83.99
2022-12-08T05:46:41.711Z,83.93
2022-12-08T05:47:31.877Z,84.05
2022-12-08T05:48:22.511Z,83.68
2022-12-08T05:49:09.630Z,83.37
2022-12-08T05:49:56.566Z,83.16
2022-12-08T05:50:49.578Z,83.37
2022-12-08T05:51:36.227Z,83.81
2022-12-08T05:52:22.686Z,83.39
2022-12-08T05:53:09.547Z,83.25
2022-12-08T05:53:56.662Z,83.37
2022-12-08T05:54:43.531Z,83.62
2022-12-08T05:55:30.194Z,83.33
2022-12-08T05:56:17.883Z,83.17
2022-12-08T05:57:04.543Z,83.16
2022-12-08T05:57:52.433Z,83.08
2022-12-08T05:58:39.714Z,83.15
2022-12-08T05:59:26.236Z,83.01
2022-12-08T06:00:13.563Z,82.57
2022-12-08T06:01:03.196Z,83.58
2022-12-08T06:01:49.861Z,83.26
2022-12-08T06:02:36.539Z,83.02
2022-12-08T06:03:23.297Z,83.27
2022-12-08T06:04:10.444Z,83.13
2022-12-08T06:04:57.015Z,83.17
2022-12-08T06:05:46.423Z,83.13
2022-12-08T06:06:34.898Z,83.11
2022-12-08T06:07:21.662Z,82.98
2022-12-08T06:08:09.072Z,83.17
2022-12-08T06:08:56.140Z,83.52
2022-12-08T06:09:42.986Z,83.26
2022-12-08T06:10:30.014Z,83.81
2022-12-08T06:11:28.691Z,83.63
2022-12-08T06:12:16.281Z,83.52
2022-12-08T06:13:07.858Z,83.76
2022-12-08T06:13:56.777Z,83.99
2022-12-08T06:14:43.718Z,83.89
2022-12-08T06:15:30.323Z,84.03
2022-12-08T06:16:17.573Z,84.19
2022-12-08T06:17:04.582Z,83.83
2022-12-08T06:17:51.261Z,84.37
2022-12-08T06:18:37.808Z,84.29
2022-12-08T06:19:24.743Z,84.42
2022-12-08T06:20:11.995Z,84.39
2022-12-08T06:21:10.343Z,84.64
2022-12-08T06:21:56.865Z,84.42
2022-12-08T06:22:43.422Z,84.45
2022-12-08T06:23:30.164Z,84.59
2022-12-08T06:24:16.832Z,84.52
2022-12-08T06:25:08.506Z,84.85
2022-12-08T06:26:01.766Z,84.34
2022-12-08T06:26:48.770Z,83.88
2022-12-08T06:27:35.314Z,84.43
2022-12-08T06:28:22.013Z,84.68
2022-12-08T06:29:08.735Z,83.72
2022-12-08T06:29:55.198Z,83.90
2022-12-08T06:30:41.661Z,83.66
2022-12-08T06:31:28.542Z,83.83
2022-12-08T06:32:15.715Z,83.84
2022-12-08T06:33:04.957Z,83.88
2022-12-08T06:33:52.862Z,84.05
2022-12-08T06:34:39.510Z,84.03
2022-12-08T06:35:26.131Z,84.38
2022-12-08T06:36:15.251Z,84.67
2022-12-08T06:37:01.797Z,84.66
2022-12-08T06:37:48.330Z,84.00
2022-12-08T06:38:38.107Z,84.36
2022-12-08T06:39:27.170Z,84.41
2022-12-08T06:40:14.237Z,84.56
2022-12-08T06:41:01.016Z,84.15
2022-12-08T06:42:06.314Z,84.40
2022-12-08T06:42:52.866Z,84.76
2022-12-08T06:43:40.104Z,85.15
2022-12-08T06:44:26.829Z,84.90
2022-12-08T06:45:17.985Z,85.11
2022-12-08T06:46:07.777Z,85.83
2022-12-08T06:46:54.492Z,85.25
2022-12-08T06:47:41.246Z,85.49
2022-12-08T06:48:27.927Z,85.22
2022-12-08T06:49:15.082Z,85.35
2022-12-08T06:50:02.116Z,85.33
2022-12-08T06:50:49.016Z,85.50
2022-12-08T06:51:35.545Z,85.04
2022-12-08T06:52:22.207Z,85.18
2022-12-08T06:53:09.021Z,85.07
2022-12-08T06:53:55.833Z,84.31
2022-12-08T06:54:42.562Z,84.44
2022-12-08T06:55:58.754Z,84.97
2022-12-08T06:56:36.017Z,85.41
2022-12-08T06:57:24.427Z,85.63
2022-12-08T06:58:14.736Z,85.11
2022-12-08T06:59:01.278Z,85.37
2022-12-08T06:59:47.788Z,84.76
2022-12-08T07:00:34.422Z,85.01
2022-12-08T07:01:21.625Z,85.22
2022-12-08T07:02:09.925Z,85.49
2022-12-08T07:02:56.527Z,84.82
2022-12-08T07:03:43.694Z,84.98
2022-12-08T07:04:30.174Z,84.71
2022-12-08T07:05:16.770Z,84.20
2022-12-08T07:06:04.740Z,84.35
2022-12-08T07:06:51.494Z,84.54
2022-12-08T07:07:38.079Z,84.78
2022-12-08T07:08:24.973Z,84.82
2022-12-08T07:09:11.788Z,84.79
2022-12-08T07:09:58.337Z,84.97
2022-12-08T07:10:44.891Z,85.51
2022-12-08T07:11:33.524Z,84.71
2022-12-08T07:12:20.676Z,84.21
2022-12-08T07:13:08.578Z,84.72
2022-12-08T07:13:57.949Z,85.25
2022-12-08T07:14:46.950Z,85.06
2022-12-08T07:15:33.640Z,85.40
2022-12-08T07:16:20.326Z,85.43
2022-12-08T07:17:09.445Z,85.20
2022-12-08T07:17:59.739Z,85.36
2022-12-08T07:18:47.000Z,85.57
2022-12-08T07:19:33.702Z,85.78
2022-12-08T07:20:20.428Z,85.83
2022-12-08T07:21:10.814Z,86.15
2022-12-08T07:21:57.488Z,86.47
2022-12-08T07:22:50.946Z,86.80
2022-12-08T07:23:38.301Z,86.90
2022-12-08T07:24:24.958Z,86.85
2022-12-08T07:25:11.473Z,86.14
2022-12-08T07:26:02.291Z,85.91
2022-12-08T07:26:49.085Z,85.74
2022-12-08T07:27:35.628Z,86.04
2022-12-08T07:28:22.191Z,85.78
2022-12-08T07:29:10.716Z,86.09
2022-12-08T07:29:57.313Z,86.16
2022-12-08T07:30:46.632Z,85.39
2022-12-08T07:31:34.164Z,85.58
2022-12-08T07:32:20.905Z,85.57
2022-12-08T07:33:07.703Z,85.62
2022-12-08T07:33:58.293Z,85.45
2022-12-08T07:34:47.361Z,85.36
2022-12-08T07:35:35.213Z,85.26
2022-12-08T07:36:22.418Z,85.32
2022-12-08T07:37:09.478Z,85.61
2022-12-08T07:37:57.840Z,85.58
2022-12-08T07:38:45.016Z,85.04
2022-12-08T07:39:31.724Z,85.25
2022-12-08T07:40:21.213Z,84.65
2022-12-08T07:41:13.474Z,84.89
2022-12-08T07:42:00.200Z,85.17
2022-12-08T07:42:47.202Z,84.88
2022-12-08T07:43:33.877Z,84.98
2022-12-08T07:44:20.451Z,85.34
2022-12-08T07:45:08.089Z,85.76
2022-12-08T07:45:55.172Z,85.20
2022-12-08T07:46:42.006Z,84.72
2022-12-08T07:47:28.865Z,84.86
2022-12-08T07:48:16.628Z,84.57
2022-12-08T07:49:03.407Z,84.41
2022-12-08T07:49:50.136Z,84.85
2022-12-08T07:50:37.240Z,84.90
2022-12-08T07:51:25.005Z,84.90
2022-12-08T07:52:11.656Z,85.11
2022-12-08T07:52:58.384Z,85.45
2022-12-08T07:53:53.471Z,84.27
2022-12-08T07:54:40.781Z,84.31
2022-12-08T07:55:27.392Z,84.18
2022-12-08T07:56:14.734Z,84.43
2022-12-08T07:57:03.565Z,84.31
2022-12-08T07:57:51.350Z,83.89
2022-12-08T07:58:41.639Z,84.12
2022-12-08T07:59:28.339Z,83.81
2022-12-08T08:00:15.696Z,83.96
2022-12-08T08:01:04.933Z,83.77
2022-12-08T08:02:13.183Z,83.78
2022-12-08T08:02:59.250Z,84.03
2022-12-08T08:03:45.976Z,84.29
2022-12-08T08:04:32.800Z,83.86
2022-12-08T08:05:20.602Z,84.23
2022-12-08T08:06:07.386Z,84.41
2022-12-08T08:06:54.484Z,84.52
2022-12-08T08:07:43.685Z,84.80
2022-12-08T08:08:30.485Z,84.85
2022-12-08T08:09:17.668Z,84.88
2022-12-08T08:10:06.012Z,84.81
2022-12-08T08:10:53.047Z,84.55
2022-12-08T08:11:39.813Z,84.98
2022-12-08T08:12:31.829Z,85.54
2022-12-08T08:13:18.905Z,84.53
2022-12-08T08:14:05.685Z,84.46
2022-12-08T08:14:52.889Z,84.64
2022-12-08T08:15:40.440Z,84.42
2022-12-08T08:16:28.586Z,84.15
2022-12-08T08:17:17.768Z,84.24
2022-12-08T08:18:07.793Z,84.13
2022-12-08T08:18:54.658Z,84.45
2022-12-08T08:19:41.403Z,84.69
2022-12-08T08:20:28.142Z,85.43
2022-12-08T08:21:43.781Z,85.15
2022-12-08T08:22:22.037Z,85.26
2022-12-08T08:23:09.181Z,85.65
2022-12-08T08:23:55.681Z,85.47
2022-12-08T08:24:45.035Z,85.25
2022-12-08T08:25:38.130Z,85.49
2022-12-08T08:26:27.549Z,86.02
2022-12-08T08:27:14.186Z,85.74
2022-12-08T08:28:00.865Z,84.93
2022-12-08T08:28:48.161Z,85.31
2022-12-08T08:29:34.769Z,85.39
2022-12-08T08:30:21.919Z,85.37
2022-12-08T08:31:08.726Z,85.62
2022-12-08T08:31:55.510Z,86.29
2022-12-08T08:32:42.607Z,86.43
2022-12-08T08:33:29.832Z,85.91
2022-12-08T08:34:17.301Z,86.60
2022-12-08T08:35:04.366Z,86.07
2022-12-08T08:35:51.192Z,86.36
2022-12-08T08:36:39.765Z,86.84
2022-12-08T08:37:27.396Z,87.09
2022-12-08T08:38:14.632Z,87.37
2022-12-08T08:39:01.573Z,87.67
2022-12-08T08:39:48.437Z,87.79
2022-12-08T08:40:35.728Z,87.86
2022-12-08T08:41:22.394Z,88.22
2022-12-08T08:42:12.225Z,88.56
2022-12-08T08:43:01.181Z,88.41
2022-12-08T08:43:47.919Z,88.64
2022-12-08T08:44:34.668Z,88.46
2022-12-08T08:45:21.295Z,88.82
2022-12-08T08:46:09.185Z,88.54
2022-12-08T08:46:56.174Z,87.96
2022-12-08T08:47:42.748Z,87.76
2022-12-08T08:48:30.946Z,88.10
2022-12-08T08:49:18.696Z,88.06
2022-12-08T08:50:06.581Z,87.99
2022-12-08T08:50:53.819Z,87.55
2022-12-08T08:51:40.582Z,87.92
2022-12-08T08:52:27.515Z,88.28
2022-12-08T08:53:14.280Z,87.29
2022-12-08T08:54:01.044Z,87.92
2022-12-08T08:54:47.661Z,88.24
2022-12-08T08:55:34.414Z,87.59
2022-12-08T08:56:21.066Z,88.04
2022-12-08T08:57:09.381Z,88.43
2022-12-08T08:57:56.358Z,87.47
2022-12-08T08:58:43.060Z,87.15
2022-12-08T08:59:30.006Z,86.88
2022-12-08T09:00:17.210Z,86.77
2022-12-08T09:01:04.203Z,87.76
2022-12-08T09:01:51.509Z,87.29
2022-12-08T09:02:39.442Z,86.48
2022-12-08T09:03:26.765Z,86.43
2022-12-08T09:04:15.680Z,86.68
2022-12-08T09:05:06.257Z,87.52
2022-12-08T09:05:53.030Z,86.54
2022-12-08T09:06:40.127Z,86.40
2022-12-08T09:07:29.104Z,87.03
2022-12-08T09:08:16.096Z,86.95
2022-12-08T09:09:02.753Z,86.70
2022-12-08T09:09:49.462Z,85.79
2022-12-08T09:10:36.123Z,86.05
2022-12-08T09:11:24.996Z,85.92
2022-12-08T09:12:12.447Z,86.28
2022-12-08T09:12:59.122Z,85.47
2022-12-08T09:13:52.953Z,85.86
2022-12-08T09:14:41.916Z,85.87
2022-12-08T09:15:31.201Z,85.65
2022-12-08T09:16:19.164Z,85.38
2022-12-08T09:17:06.885Z,85.57
2022-12-08T09:17:53.804Z,85.42
2022-12-08T09:18:40.706Z,85.72
2022-12-08T09:19:27.272Z,85.63
2022-12-08T09:20:14.218Z,86.13
2022-12-08T09:21:09.188Z,86.06
2022-12-08T09:21:56.282Z,85.21
2022-12-08T09:22:43.010Z,84.78
2022-12-08T09:23:35.211Z,85.04
2022-12-08T09:24:23.167Z,84.46
2022-12-08T09:25:12.030Z,83.13
2022-12-08T09:26:01.163Z,83.62
2022-12-08T09:26:48.365Z,83.96
2022-12-08T09:27:35.066Z,84.20
2022-12-08T09:28:22.496Z,83.87
2022-12-08T09:29:10.149Z,83.86
2022-12-08T09:29:56.740Z,84.06
2022-12-08T09:30:43.403Z,83.87
2022-12-08T09:31:30.117Z,83.69
2022-12-08T09:32:16.948Z,83.07
2022-12-08T09:33:05.769Z,83.45
2022-12-08T09:33:53.027Z,82.62
2022-12-08T09:34:44.434Z,83.35
2022-12-08T09:35:37.638Z,82.06
2022-12-08T09:36:24.288Z,82.43
2022-12-08T09:37:11.235Z,82.75
2022-12-08T09:37:57.987Z,82.46
2022-12-08T09:38:44.688Z,82.63
2022-12-08T09:39:31.568Z,82.26
2022-12-08T09:40:22.741Z,81.45
2022-12-08T09:41:36.818Z,82.04
2022-12-08T09:42:53.244Z,83.02
2022-12-08T09:44:02.532Z,82.79
2022-12-08T09:44:59.927Z,82.48
2022-12-08T09:45:49.138Z,82.18
2022-12-08T09:46:38.849Z,81.40
2022-12-08T09:47:37.039Z,80.77
2022-12-08T09:48:35.413Z,81.19
2022-12-08T09:49:47.608Z,81.35
2022-12-08T09:50:45.317Z,81.26
2022-12-08T09:51:39.514Z,81.16
2022-12-08T09:52:32.593Z,81.92
2022-12-08T09:53:37.219Z,82.24
2022-12-08T09:54:34.300Z,81.62
2022-12-08T09:55:28.828Z,81.30
2022-12-08T09:56:30.735Z,81.82
2022-12-08T09:57:22.508Z,80.33
2022-12-08T09:58:47.628Z,81.45
2022-12-08T09:59:35.673Z,82.16
2022-12-08T10:00:25.894Z,81.52
2022-12-08T10:01:16.700Z,82.00
2022-12-08T10:02:20.917Z,82.81
2022-12-08T10:03:16.876Z,82.19
2022-12-08T10:04:06.142Z,80.86
2022-12-08T10:04:56.033Z,81.11
2022-12-08T10:05:54.420Z,81.53
2022-12-08T10:06:53.106Z,81.87
2022-12-08T10:07:56.538Z,81.10
2022-12-08T10:09:23.826Z,80.94
2022-12-08T10:10:56.929Z,78.83
2022-12-08T10:11:57.560Z,79.95
2022-12-08T10:12:56.212Z,79.80
2022-12-08T10:14:15.494Z,79.34
2022-12-08T10:15:30.608Z,79.62
2022-12-08T10:16:41.746Z,79.45
2022-12-08T10:17:50.142Z,79.19
2022-12-08T10:18:37.827Z,78.70
2022-12-08T10:19:28.107Z,78.74
2022-12-08T10:20:21.501Z,78.50
2022-12-08T10:21:20.446Z,77.79
2022-12-08T10:22:21.520Z,78.09
2022-12-08T10:23:38.621Z,78.52
2022-12-08T10:24:37.315Z,78.57
2022-12-08T10:25:42.061Z,77.63
2022-12-08T10:26:32.923Z,78.08
2022-12-08T10:27:21.068Z,78.82
2022-12-08T10:28:09.527Z,78.82
2022-12-08T10:29:01.378Z,79.01
2022-12-08T10:29:48.243Z,79.87
2022-12-08T10:30:35.393Z,79.88
2022-12-08T10:31:25.301Z,79.74
2022-12-08T10:32:21.832Z,78.95
2022-12-08T10:33:19.685Z,79.55
2022-12-08T10:34:24.236Z,78.62
2022-12-08T10:35:14.629Z,79.12
2022-12-08T10:36:04.932Z,79.58
2022-12-08T10:36:56.043Z,78.81
2022-12-08T10:38:00.128Z,78.75
2022-12-08T10:38:47.218Z,79.58
2022-12-08T10:39:45.851Z,79.44
2022-12-08T10:40:42.332Z,78.63
2022-12-08T10:41:52.313Z,78.55
2022-12-08T10:42:52.382Z,79.06
2022-12-08T10:43:55.168Z,79.58
2022-12-08T10:44:58.216Z,79.63
2022-12-08T10:45:47.403Z,79.45
2022-12-08T10:46:38.265Z,79.10
2022-12-08T10:47:28.679Z,79.26
2022-12-08T10:48:28.771Z,80.63
2022-12-08T10:49:27.633Z,79.59
2022-12-08T10:50:22.448Z,79.71